Portada
METAR-TAF:

METAR-TAF

Aeroports :

Ranchi, Índia

latitud: 23-18-51N, longitud: 85-19-18E, altitud: 646 m

Observació

L'informe es va fer fa 14 minuts, a les 18:00 UTC
Vent calma
Temperatura 25°C
Humitat 89%
Pressió 1015 hPa
Visibilitat: 3500 m
Escasses núvols a una alçada de 1500 ft
Núvols disperses a una alçada de 10000 ft
calitja

METAR: VERC 231800Z 00000KT 3500 HZ FEW015 SCT100 25/23 Q1015 BECMG 3000 HZ

Hora: 23:44 (18:14 UTC)


TAF: manca

Observacions i pronòstics meteorològics de més de 4000 aeroports (METAR i TAF).

Les estacions disponibles són els punts grocs i vermells al mapa.

Posi el ratolí al punt desitjat per veure el nom de l'estació.

Feu clic per veure les observacions i els pronòstics meteorològics.

Per canviar el mapa: feu clic els botons verds amb una creu de color negre per apropar; al botó verd amb un guió per allunyar la imatge; o en les fletxes verdes per a mapes adjacents.


METAR-TAF: